Millersburg, KY (40348)

4:55 PM EST on March 01, 2017 (GMT -0500)
| | Change Station
Active Advisory: Special Statement

Elev -9999 ft 0.00 °N, 0.00 °E | Updated 9 minutes ago

Partly Cloudy
Partly Cloudy
°F
Feels Like °F
N
Wind Variable Wind from North
Gusts mph

Today
High -- | Low -- °F
--% Chance of Precip.
Yesterday
High -- | Low -- °F
Precip. -- in
Pressure 29.73 in
Visibility 10.0 miles
Clouds Clear
Dew Point Not available.
Humidity Not available.
Rainfall --
Snow Depth Not available.
7:08 AM 6:30 PM
Waxing Crescent, 13% visible
METAR KIOB 012135Z AUTO 31020G30KT 10SM CLR 16/09 A2973 RMK AO2
Pressure 29.73 in
Visibility 10.0 miles
Clouds Clear
Dew Point Not available.
Humidity Not available.
Rainfall --
Snow Depth Not available.
7:08 AM 6:30 PM
Waxing Crescent, 13% visible
METAR KIOB 012135Z AUTO 31020G30KT 10SM CLR 16/09 A2973 RMK AO2

Get Your Daily Forecast Email!

Thanks for signing up!

Be on the lookout for a verification email in your inbox.

You'll start receiving the daily forecast at 8 AM.

×

10-Day Weather Forecast

Almanac

Astronomy

Mar. 01, 2017 Rise Set
Actual Time
Civil Twilight
Nautical Twilight
Astronomical Twilight
Moon
Length of Visible Light
Length of Day
Tomorrow will be .
, % of the Moon is Illuminated

Today's Extremes

State Highs State Lows

Community

WunderPhotos

Upload Photos

1,962,540 photos uploaded!

WunderBlog® & News

Nearby

Air Quality

  Air Quality AQ Index Pollutant
Not available.

Snow Depth

Station Depth Elevation

Earthquake Activity

City Distance Mag. Time & Date
Minimum magnitude displayed is 2.5.

Coastal Water Temperatures

Place Temperature

Stations

Nearby Weather Stations

Station Location Temp. Windchill Dew Point Humidity Wind Precip. Elev Updated Type
                   

Watches & Warnings

Special Statement
Issued: 12:05 PM CST Mar. 1, 2017 – National Weather Service

... Gusty west winds this afternoon and evening...

Expect west winds to be sustained 20 to 25 mph with gusts 30 to 35
mph through this evening across southern Indiana and north central
Kentucky. Secure any loose outdoor objects and use caution if
driving on north south oriented roadways such as Interstate 65.


Zt

105 PM EST Wed Mar 1 2017 /1205 PM CST Wed Mar 1 2017/

... Gusty west winds this afternoon and evening...

Expect west winds to be sustained 20 to 25 mph with gusts 30 to 35
mph through this evening across southern Indiana and north central
Kentucky. Secure any loose outdoor objects and use caution if
driving on north south oriented roadways such as Interstate 65.


Zt